sensor_id;sensor_type;location;lat;lon;timestamp;P1;durP1;ratioP1;P2;durP2;ratioP2
11010;SDS011;5558;42.702;23.178;2023-09-30T00:00:31;7.00;;;5.17;;
11010;SDS011;5558;42.702;23.178;2023-09-30T00:02:58;7.47;;;5.60;;
11010;SDS011;5558;42.702;23.178;2023-09-30T00:05:25;5.80;;;5.20;;
11010;SDS011;5558;42.702;23.178;2023-09-30T00:07:54;9.17;;;5.57;;
11010;SDS011;5558;42.702;23.178;2023-09-30T00:10:20;7.73;;;5.23;;
11010;SDS011;5558;42.702;23.178;2023-09-30T00:12:47;6.20;;;4.73;;
11010;SDS011;5558;42.702;23.178;2023-09-30T00:15:14;8.40;;;5.13;;
11010;SDS011;5558;42.702;23.178;2023-09-30T00:17:40;6.87;;;5.30;;
11010;SDS011;5558;42.702;23.178;2023-09-30T00:20:07;6.63;;;5.17;;
11010;SDS011;5558;42.702;23.178;2023-09-30T00:22:35;5.30;;;4.80;;
11010;SDS011;5558;42.702;23.178;2023-09-30T00:25:04;6.73;;;4.93;;
11010;SDS011;5558;42.702;23.178;2023-09-30T00:27:31;7.90;;;5.10;;
11010;SDS011;5558;42.702;23.178;2023-09-30T00:29:58;6.30;;;4.47;;
11010;SDS011;5558;42.702;23.178;2023-09-30T00:32:25;5.83;;;4.87;;
11010;SDS011;5558;42.702;23.178;2023-09-30T00:34:51;6.80;;;4.93;;
11010;SDS011;5558;42.702;23.178;2023-09-30T00:37:18;7.13;;;4.50;;
11010;SDS011;5558;42.702;23.178;2023-09-30T00:39:46;6.93;;;4.43;;
11010;SDS011;5558;42.702;23.178;2023-09-30T00:42:14;5.80;;;4.63;;
11010;SDS011;5558;42.702;23.178;2023-09-30T00:44:40;7.67;;;4.90;;
11010;SDS011;5558;42.702;23.178;2023-09-30T00:47:07;5.47;;;4.57;;
11010;SDS011;5558;42.702;23.178;2023-09-30T00:49:35;6.10;;;4.40;;
11010;SDS011;5558;42.702;23.178;2023-09-30T00:52:03;6.60;;;4.60;;
11010;SDS011;5558;42.702;23.178;2023-09-30T00:54:30;6.40;;;4.47;;
11010;SDS011;5558;42.702;23.178;2023-09-30T00:56:57;7.63;;;4.37;;
11010;SDS011;5558;42.702;23.178;2023-09-30T00:59:27;5.70;;;4.87;;
11010;SDS011;5558;42.702;23.178;2023-09-30T01:01:56;7.00;;;4.53;;
11010;SDS011;5558;42.702;23.178;2023-09-30T01:04:24;4.97;;;4.27;;
11010;SDS011;5558;42.702;23.178;2023-09-30T01:06:53;5.60;;;4.70;;
11010;SDS011;5558;42.702;23.178;2023-09-30T01:09:22;7.53;;;4.87;;
11010;SDS011;5558;42.702;23.178;2023-09-30T01:11:49;4.83;;;4.30;;
11010;SDS011;5558;42.702;23.178;2023-09-30T01:14:27;4.90;;;4.40;;
11010;SDS011;5558;42.702;23.178;2023-09-30T01:16:56;6.07;;;4.43;;
11010;SDS011;5558;42.702;23.178;2023-09-30T01:19:23;6.13;;;4.67;;
11010;SDS011;5558;42.702;23.178;2023-09-30T01:21:52;5.77;;;4.47;;
11010;SDS011;5558;42.702;23.178;2023-09-30T01:24:21;7.17;;;4.40;;
11010;SDS011;5558;42.702;23.178;2023-09-30T01:26:48;6.67;;;4.40;;
11010;SDS011;5558;42.702;23.178;2023-09-30T01:29:15;6.07;;;4.50;;
11010;SDS011;5558;42.702;23.178;2023-09-30T01:31:42;6.80;;;4.50;;
11010;SDS011;5558;42.702;23.178;2023-09-30T01:34:13;7.00;;;4.30;;
11010;SDS011;5558;42.702;23.178;2023-09-30T01:36:40;5.17;;;4.10;;
11010;SDS011;5558;42.702;23.178;2023-09-30T01:39:08;5.13;;;4.43;;
11010;SDS011;5558;42.702;23.178;2023-09-30T01:41:35;6.03;;;4.50;;
11010;SDS011;5558;42.702;23.178;2023-09-30T01:44:02;7.10;;;4.57;;
11010;SDS011;5558;42.702;23.178;2023-09-30T01:46:29;8.17;;;4.60;;
11010;SDS011;5558;42.702;23.178;2023-09-30T01:48:56;5.83;;;4.20;;
11010;SDS011;5558;42.702;23.178;2023-09-30T01:51:22;4.90;;;4.40;;
11010;SDS011;5558;42.702;23.178;2023-09-30T01:53:49;5.93;;;4.33;;
11010;SDS011;5558;42.702;23.178;2023-09-30T01:56:17;4.80;;;4.30;;
11010;SDS011;5558;42.702;23.178;2023-09-30T01:58:44;5.03;;;4.43;;
11010;SDS011;5558;42.702;23.178;2023-09-30T02:01:11;6.80;;;4.47;;
11010;SDS011;5558;42.702;23.178;2023-09-30T02:03:37;6.13;;;4.40;;
11010;SDS011;5558;42.702;23.178;2023-09-30T02:06:04;7.87;;;4.47;;
11010;SDS011;5558;42.702;23.178;2023-09-30T02:08:31;8.73;;;4.73;;
11010;SDS011;5558;42.702;23.178;2023-09-30T02:10:57;6.43;;;4.30;;
11010;SDS011;5558;42.702;23.178;2023-09-30T02:13:26;5.60;;;4.63;;
11010;SDS011;5558;42.702;23.178;2023-09-30T02:15:53;4.70;;;4.03;;
11010;SDS011;5558;42.702;23.178;2023-09-30T02:18:20;7.70;;;4.67;;
11010;SDS011;5558;42.702;23.178;2023-09-30T02:20:48;4.93;;;4.33;;
11010;SDS011;5558;42.702;23.178;2023-09-30T02:23:15;6.47;;;4.80;;
11010;SDS011;5558;42.702;23.178;2023-09-30T02:25:42;5.37;;;4.50;;
11010;SDS011;5558;42.702;23.178;2023-09-30T02:28:09;7.27;;;4.87;;
11010;SDS011;5558;42.702;23.178;2023-09-30T02:30:37;5.80;;;4.70;;
11010;SDS011;5558;42.702;23.178;2023-09-30T02:33:04;6.90;;;4.60;;
11010;SDS011;5558;42.702;23.178;2023-09-30T02:35:32;6.90;;;4.70;;
11010;SDS011;5558;42.702;23.178;2023-09-30T02:37:58;5.00;;;4.50;;
11010;SDS011;5558;42.702;23.178;2023-09-30T02:40:25;6.53;;;4.90;;
11010;SDS011;5558;42.702;23.178;2023-09-30T02:42:52;9.10;;;5.03;;
11010;SDS011;5558;42.702;23.178;2023-09-30T02:45:19;6.20;;;4.70;;
11010;SDS011;5558;42.702;23.178;2023-09-30T02:47:47;5.67;;;4.80;;
11010;SDS011;5558;42.702;23.178;2023-09-30T02:50:14;4.97;;;4.47;;
11010;SDS011;5558;42.702;23.178;2023-09-30T02:52:40;7.17;;;4.80;;
11010;SDS011;5558;42.702;23.178;2023-09-30T02:55:08;5.90;;;4.77;;
11010;SDS011;5558;42.702;23.178;2023-09-30T02:57:35;5.20;;;4.70;;
11010;SDS011;5558;42.702;23.178;2023-09-30T03:00:02;5.07;;;4.53;;
11010;SDS011;5558;42.702;23.178;2023-09-30T03:02:37;5.20;;;4.33;;
11010;SDS011;5558;42.702;23.178;2023-09-30T03:05:06;4.80;;;4.30;;
11010;SDS011;5558;42.702;23.178;2023-09-30T03:07:33;6.43;;;4.60;;
11010;SDS011;5558;42.702;23.178;2023-09-30T03:10:00;6.30;;;4.47;;
11010;SDS011;5558;42.702;23.178;2023-09-30T03:12:30;6.77;;;4.70;;
11010;SDS011;5558;42.702;23.178;2023-09-30T03:14:57;5.50;;;4.50;;
11010;SDS011;5558;42.702;23.178;2023-09-30T03:17:24;7.47;;;5.00;;
11010;SDS011;5558;42.702;23.178;2023-09-30T03:19:51;7.23;;;4.40;;
11010;SDS011;5558;42.702;23.178;2023-09-30T03:22:20;7.10;;;4.87;;
11010;SDS011;5558;42.702;23.178;2023-09-30T03:24:47;6.53;;;4.57;;
11010;SDS011;5558;42.702;23.178;2023-09-30T03:27:13;5.97;;;4.40;;
11010;SDS011;5558;42.702;23.178;2023-09-30T03:29:41;5.73;;;4.30;;
11010;SDS011;5558;42.702;23.178;2023-09-30T03:32:08;7.40;;;4.37;;
11010;SDS011;5558;42.702;23.178;2023-09-30T03:34:34;6.27;;;4.37;;
11010;SDS011;5558;42.702;23.178;2023-09-30T03:37:02;6.30;;;4.80;;
11010;SDS011;5558;42.702;23.178;2023-09-30T03:39:33;5.70;;;4.20;;
11010;SDS011;5558;42.702;23.178;2023-09-30T03:41:59;5.90;;;4.00;;
11010;SDS011;5558;42.702;23.178;2023-09-30T03:44:26;6.63;;;4.63;;
11010;SDS011;5558;42.702;23.178;2023-09-30T03:46:53;5.47;;;4.57;;
11010;SDS011;5558;42.702;23.178;2023-09-30T03:49:20;5.30;;;4.30;;
11010;SDS011;5558;42.702;23.178;2023-09-30T03:51:47;6.40;;;4.60;;
11010;SDS011;5558;42.702;23.178;2023-09-30T03:54:15;6.83;;;4.50;;
11010;SDS011;5558;42.702;23.178;2023-09-30T03:56:44;6.50;;;4.30;;
11010;SDS011;5558;42.702;23.178;2023-09-30T03:59:11;6.10;;;4.50;;
11010;SDS011;5558;42.702;23.178;2023-09-30T04:01:38;6.67;;;4.50;;
11010;SDS011;5558;42.702;23.178;2023-09-30T04:04:06;5.23;;;4.23;;
11010;SDS011;5558;42.702;23.178;2023-09-30T04:06:34;6.23;;;4.10;;
11010;SDS011;5558;42.702;23.178;2023-09-30T04:09:03;6.90;;;4.70;;
11010;SDS011;5558;42.702;23.178;2023-09-30T04:11:34;6.37;;;4.60;;
11010;SDS011;5558;42.702;23.178;2023-09-30T04:14:03;10.03;;;4.67;;
11010;SDS011;5558;42.702;23.178;2023-09-30T04:16:31;7.57;;;4.50;;
11010;SDS011;5558;42.702;23.178;2023-09-30T04:18:58;5.07;;;4.53;;
11010;SDS011;5558;42.702;23.178;2023-09-30T04:21:25;6.80;;;4.80;;
11010;SDS011;5558;42.702;23.178;2023-09-30T04:23:53;6.20;;;4.60;;
11010;SDS011;5558;42.702;23.178;2023-09-30T04:26:20;8.43;;;4.60;;
11010;SDS011;5558;42.702;23.178;2023-09-30T04:28:47;5.67;;;4.40;;
11010;SDS011;5558;42.702;23.178;2023-09-30T04:31:15;7.53;;;4.50;;
11010;SDS011;5558;42.702;23.178;2023-09-30T04:33:43;5.77;;;4.47;;
11010;SDS011;5558;42.702;23.178;2023-09-30T04:36:10;5.27;;;4.40;;
11010;SDS011;5558;42.702;23.178;2023-09-30T04:38:38;5.40;;;4.40;;
11010;SDS011;5558;42.702;23.178;2023-09-30T04:41:05;6.50;;;4.40;;
11010;SDS011;5558;42.702;23.178;2023-09-30T04:43:32;5.83;;;4.53;;
11010;SDS011;5558;42.702;23.178;2023-09-30T04:45:59;7.40;;;4.30;;
11010;SDS011;5558;42.702;23.178;2023-09-30T04:48:27;5.13;;;4.10;;
11010;SDS011;5558;42.702;23.178;2023-09-30T04:50:54;6.40;;;4.23;;
11010;SDS011;5558;42.702;23.178;2023-09-30T04:53:21;5.17;;;4.20;;
11010;SDS011;5558;42.702;23.178;2023-09-30T04:55:49;6.10;;;4.23;;
11010;SDS011;5558;42.702;23.178;2023-09-30T04:58:16;6.23;;;3.90;;
11010;SDS011;5558;42.702;23.178;2023-09-30T05:00:43;4.80;;;3.47;;
11010;SDS011;5558;42.702;23.178;2023-09-30T05:03:10;5.43;;;3.90;;
11010;SDS011;5558;42.702;23.178;2023-09-30T05:05:38;5.33;;;4.10;;
11010;SDS011;5558;42.702;23.178;2023-09-30T05:08:04;5.10;;;3.63;;
11010;SDS011;5558;42.702;23.178;2023-09-30T05:10:31;6.47;;;3.60;;
11010;SDS011;5558;42.702;23.178;2023-09-30T05:12:58;6.63;;;3.60;;
11010;SDS011;5558;42.702;23.178;2023-09-30T05:15:25;8.43;;;3.60;;
11010;SDS011;5558;42.702;23.178;2023-09-30T05:17:54;5.80;;;3.47;;
11010;SDS011;5558;42.702;23.178;2023-09-30T05:20:21;7.07;;;4.03;;
11010;SDS011;5558;42.702;23.178;2023-09-30T05:22:49;4.90;;;3.67;;
11010;SDS011;5558;42.702;23.178;2023-09-30T05:25:16;7.20;;;3.77;;
11010;SDS011;5558;42.702;23.178;2023-09-30T05:27:43;7.53;;;4.07;;
11010;SDS011;5558;42.702;23.178;2023-09-30T05:30:12;5.53;;;3.33;;
11010;SDS011;5558;42.702;23.178;2023-09-30T05:32:41;7.60;;;3.43;;
11010;SDS011;5558;42.702;23.178;2023-09-30T05:35:08;6.37;;;3.30;;
11010;SDS011;5558;42.702;23.178;2023-09-30T05:37:38;7.00;;;3.50;;
11010;SDS011;5558;42.702;23.178;2023-09-30T05:40:08;8.50;;;3.50;;
11010;SDS011;5558;42.702;23.178;2023-09-30T05:42:42;4.63;;;3.27;;
11010;SDS011;5558;42.702;23.178;2023-09-30T05:45:10;5.13;;;3.40;;
11010;SDS011;5558;42.702;23.178;2023-09-30T05:47:37;4.73;;;3.30;;
11010;SDS011;5558;42.702;23.178;2023-09-30T05:50:05;5.93;;;3.47;;
11010;SDS011;5558;42.702;23.178;2023-09-30T05:52:33;4.67;;;3.00;;
11010;SDS011;5558;42.702;23.178;2023-09-30T05:54:59;3.93;;;3.10;;
11010;SDS011;5558;42.702;23.178;2023-09-30T05:57:28;4.33;;;3.07;;
11010;SDS011;5558;42.702;23.178;2023-09-30T05:59:55;7.73;;;3.50;;
11010;SDS011;5558;42.702;23.178;2023-09-30T06:02:22;5.97;;;3.00;;
11010;SDS011;5558;42.702;23.178;2023-09-30T06:04:48;5.70;;;3.20;;
11010;SDS011;5558;42.702;23.178;2023-09-30T06:07:18;8.17;;;3.20;;
11010;SDS011;5558;42.702;23.178;2023-09-30T06:09:45;5.57;;;2.90;;
11010;SDS011;5558;42.702;23.178;2023-09-30T06:12:13;5.47;;;3.20;;
11010;SDS011;5558;42.702;23.178;2023-09-30T06:14:41;6.83;;;3.50;;
11010;SDS011;5558;42.702;23.178;2023-09-30T06:17:08;6.40;;;3.60;;
11010;SDS011;5558;42.702;23.178;2023-09-30T06:19:35;6.30;;;3.50;;
11010;SDS011;5558;42.702;23.178;2023-09-30T06:22:02;8.20;;;3.20;;
11010;SDS011;5558;42.702;23.178;2023-09-30T06:24:30;7.17;;;3.23;;
11010;SDS011;5558;42.702;23.178;2023-09-30T06:26:56;4.53;;;3.13;;
11010;SDS011;5558;42.702;23.178;2023-09-30T06:29:23;6.03;;;3.10;;
11010;SDS011;5558;42.702;23.178;2023-09-30T06:31:51;3.83;;;3.00;;
11010;SDS011;5558;42.702;23.178;2023-09-30T06:34:18;5.47;;;2.87;;
11010;SDS011;5558;42.702;23.178;2023-09-30T06:36:44;6.70;;;3.20;;
11010;SDS011;5558;42.702;23.178;2023-09-30T06:39:11;3.83;;;2.70;;
11010;SDS011;5558;42.702;23.178;2023-09-30T06:41:38;4.17;;;2.80;;
11010;SDS011;5558;42.702;23.178;2023-09-30T06:44:05;7.30;;;2.90;;
11010;SDS011;5558;42.702;23.178;2023-09-30T06:46:32;6.67;;;3.23;;
11010;SDS011;5558;42.702;23.178;2023-09-30T06:49:00;5.07;;;2.87;;
11010;SDS011;5558;42.702;23.178;2023-09-30T06:51:27;4.77;;;2.77;;
11010;SDS011;5558;42.702;23.178;2023-09-30T06:53:54;3.07;;;2.77;;
11010;SDS011;5558;42.702;23.178;2023-09-30T06:56:20;5.53;;;3.00;;
11010;SDS011;5558;42.702;23.178;2023-09-30T06:58:47;3.20;;;2.90;;
11010;SDS011;5558;42.702;23.178;2023-09-30T07:01:15;5.60;;;2.97;;
11010;SDS011;5558;42.702;23.178;2023-09-30T07:03:43;5.23;;;3.00;;
11010;SDS011;5558;42.702;23.178;2023-09-30T07:06:12;4.63;;;3.00;;
11010;SDS011;5558;42.702;23.178;2023-09-30T07:08:38;4.03;;;2.90;;
11010;SDS011;5558;42.702;23.178;2023-09-30T07:11:05;6.40;;;2.70;;
11010;SDS011;5558;42.702;23.178;2023-09-30T07:13:32;6.70;;;3.17;;
11010;SDS011;5558;42.702;23.178;2023-09-30T07:15:59;7.17;;;2.93;;
11010;SDS011;5558;42.702;23.178;2023-09-30T07:18:26;5.27;;;3.10;;
11010;SDS011;5558;42.702;23.178;2023-09-30T07:20:54;10.43;;;3.00;;
11010;SDS011;5558;42.702;23.178;2023-09-30T07:23:22;5.37;;;2.77;;
11010;SDS011;5558;42.702;23.178;2023-09-30T07:25:49;4.10;;;2.97;;
11010;SDS011;5558;42.702;23.178;2023-09-30T07:28:15;37.80;;;6.33;;
11010;SDS011;5558;42.702;23.178;2023-09-30T07:30:43;5.27;;;3.03;;
11010;SDS011;5558;42.702;23.178;2023-09-30T07:33:10;5.60;;;3.00;;
11010;SDS011;5558;42.702;23.178;2023-09-30T07:35:37;4.70;;;2.90;;
11010;SDS011;5558;42.702;23.178;2023-09-30T07:38:04;6.83;;;3.37;;
11010;SDS011;5558;42.702;23.178;2023-09-30T07:40:32;5.70;;;3.07;;
11010;SDS011;5558;42.702;23.178;2023-09-30T07:42:59;6.70;;;3.13;;
11010;SDS011;5558;42.702;23.178;2023-09-30T07:45:26;4.73;;;2.93;;
11010;SDS011;5558;42.702;23.178;2023-09-30T07:47:53;6.07;;;3.00;;
11010;SDS011;5558;42.702;23.178;2023-09-30T07:50:19;5.00;;;2.80;;
11010;SDS011;5558;42.702;23.178;2023-09-30T07:52:46;6.17;;;3.00;;
11010;SDS011;5558;42.702;23.178;2023-09-30T07:55:13;8.00;;;2.97;;
11010;SDS011;5558;42.702;23.178;2023-09-30T07:57:42;5.77;;;2.87;;
11010;SDS011;5558;42.702;23.178;2023-09-30T08:00:10;7.23;;;3.10;;
11010;SDS011;5558;42.702;23.178;2023-09-30T08:02:40;6.63;;;2.93;;
11010;SDS011;5558;42.702;23.178;2023-09-30T08:05:07;6.10;;;3.20;;
11010;SDS011;5558;42.702;23.178;2023-09-30T08:07:35;4.40;;;3.30;;
11010;SDS011;5558;42.702;23.178;2023-09-30T08:10:02;5.07;;;3.50;;
11010;SDS011;5558;42.702;23.178;2023-09-30T08:12:30;7.03;;;3.77;;
11010;SDS011;5558;42.702;23.178;2023-09-30T08:14:58;6.13;;;3.77;;
11010;SDS011;5558;42.702;23.178;2023-09-30T08:17:25;5.60;;;3.70;;
11010;SDS011;5558;42.702;23.178;2023-09-30T08:19:52;5.17;;;3.60;;
11010;SDS011;5558;42.702;23.178;2023-09-30T08:22:18;6.40;;;3.60;;
11010;SDS011;5558;42.702;23.178;2023-09-30T08:24:46;7.30;;;4.10;;
11010;SDS011;5558;42.702;23.178;2023-09-30T08:27:12;6.40;;;3.80;;
11010;SDS011;5558;42.702;23.178;2023-09-30T08:29:39;6.07;;;4.80;;
11010;SDS011;5558;42.702;23.178;2023-09-30T08:32:07;9.03;;;4.10;;
11010;SDS011;5558;42.702;23.178;2023-09-30T08:34:34;6.13;;;4.60;;
11010;SDS011;5558;42.702;23.178;2023-09-30T08:37:01;7.33;;;4.80;;
11010;SDS011;5558;42.702;23.178;2023-09-30T08:39:28;10.20;;;5.67;;
11010;SDS011;5558;42.702;23.178;2023-09-30T08:41:55;6.17;;;5.00;;
11010;SDS011;5558;42.702;23.178;2023-09-30T08:44:23;8.10;;;5.60;;
11010;SDS011;5558;42.702;23.178;2023-09-30T08:46:50;7.33;;;5.60;;
11010;SDS011;5558;42.702;23.178;2023-09-30T08:49:18;8.63;;;5.80;;
11010;SDS011;5558;42.702;23.178;2023-09-30T08:51:46;8.90;;;5.80;;
11010;SDS011;5558;42.702;23.178;2023-09-30T08:54:15;7.33;;;5.47;;
11010;SDS011;5558;42.702;23.178;2023-09-30T08:56:42;7.60;;;6.00;;
11010;SDS011;5558;42.702;23.178;2023-09-30T08:59:14;10.23;;;5.90;;
11010;SDS011;5558;42.702;23.178;2023-09-30T09:01:41;7.30;;;5.60;;
11010;SDS011;5558;42.702;23.178;2023-09-30T09:04:08;6.57;;;5.13;;
11010;SDS011;5558;42.702;23.178;2023-09-30T09:06:37;9.20;;;5.50;;
11010;SDS011;5558;42.702;23.178;2023-09-30T09:09:13;7.80;;;4.40;;
11010;SDS011;5558;42.702;23.178;2023-09-30T09:11:41;5.77;;;4.50;;
11010;SDS011;5558;42.702;23.178;2023-09-30T09:14:08;7.93;;;4.90;;
11010;SDS011;5558;42.702;23.178;2023-09-30T09:16:35;6.43;;;4.70;;
11010;SDS011;5558;42.702;23.178;2023-09-30T09:19:12;6.57;;;4.57;;
11010;SDS011;5558;42.702;23.178;2023-09-30T09:21:52;5.93;;;4.53;;
11010;SDS011;5558;42.702;23.178;2023-09-30T09:24:26;5.47;;;4.50;;
11010;SDS011;5558;42.702;23.178;2023-09-30T09:27:03;6.43;;;4.43;;
11010;SDS011;5558;42.702;23.178;2023-09-30T09:29:31;5.20;;;3.87;;
11010;SDS011;5558;42.702;23.178;2023-09-30T09:32:08;6.40;;;4.50;;
11010;SDS011;5558;42.702;23.178;2023-09-30T09:34:36;9.70;;;4.20;;
11010;SDS011;5558;42.702;23.178;2023-09-30T09:37:14;6.10;;;4.20;;
11010;SDS011;5558;42.702;23.178;2023-09-30T09:39:54;6.10;;;3.80;;
11010;SDS011;5558;42.702;23.178;2023-09-30T09:42:26;4.93;;;3.80;;
11010;SDS011;5558;42.702;23.178;2023-09-30T09:44:54;7.17;;;3.97;;
11010;SDS011;5558;42.702;23.178;2023-09-30T09:47:22;5.97;;;4.10;;
11010;SDS011;5558;42.702;23.178;2023-09-30T09:49:50;4.90;;;3.60;;
11010;SDS011;5558;42.702;23.178;2023-09-30T09:52:19;6.80;;;3.73;;
11010;SDS011;5558;42.702;23.178;2023-09-30T09:54:46;6.57;;;3.60;;
11010;SDS011;5558;42.702;23.178;2023-09-30T09:57:14;5.50;;;3.67;;
11010;SDS011;5558;42.702;23.178;2023-09-30T09:59:44;4.83;;;3.70;;
11010;SDS011;5558;42.702;23.178;2023-09-30T10:02:12;5.57;;;3.50;;
11010;SDS011;5558;42.702;23.178;2023-09-30T10:04:40;5.97;;;3.77;;
11010;SDS011;5558;42.702;23.178;2023-09-30T10:07:09;6.20;;;3.70;;
11010;SDS011;5558;42.702;23.178;2023-09-30T10:09:43;6.40;;;4.00;;
11010;SDS011;5558;42.702;23.178;2023-09-30T10:12:15;5.77;;;3.73;;
11010;SDS011;5558;42.702;23.178;2023-09-30T10:14:43;5.73;;;3.73;;
11010;SDS011;5558;42.702;23.178;2023-09-30T10:17:09;5.77;;;3.40;;
11010;SDS011;5558;42.702;23.178;2023-09-30T10:19:36;4.87;;;3.17;;
11010;SDS011;5558;42.702;23.178;2023-09-30T10:22:31;4.53;;;3.07;;
11010;SDS011;5558;42.702;23.178;2023-09-30T10:24:59;4.87;;;3.60;;
11010;SDS011;5558;42.702;23.178;2023-09-30T10:27:31;4.03;;;3.33;;
11010;SDS011;5558;42.702;23.178;2023-09-30T10:30:10;4.87;;;3.30;;
11010;SDS011;5558;42.702;23.178;2023-09-30T10:35:43;4.47;;;3.00;;
11010;SDS011;5558;42.702;23.178;2023-09-30T10:41:09;5.57;;;2.90;;
11010;SDS011;5558;42.702;23.178;2023-09-30T10:43:40;5.00;;;2.73;;
11010;SDS011;5558;42.702;23.178;2023-09-30T10:48:55;6.03;;;3.10;;
11010;SDS011;5558;42.702;23.178;2023-09-30T10:51:22;4.27;;;3.00;;
11010;SDS011;5558;42.702;23.178;2023-09-30T10:53:49;4.53;;;2.90;;
11010;SDS011;5558;42.702;23.178;2023-09-30T10:56:23;5.50;;;2.70;;
11010;SDS011;5558;42.702;23.178;2023-09-30T10:58:52;3.50;;;2.67;;
11010;SDS011;5558;42.702;23.178;2023-09-30T11:01:21;4.70;;;2.93;;
11010;SDS011;5558;42.702;23.178;2023-09-30T11:03:49;3.97;;;2.67;;
11010;SDS011;5558;42.702;23.178;2023-09-30T11:06:16;4.80;;;2.80;;
11010;SDS011;5558;42.702;23.178;2023-09-30T11:08:49;5.93;;;2.60;;
11010;SDS011;5558;42.702;23.178;2023-09-30T11:11:18;3.30;;;3.00;;
11010;SDS011;5558;42.702;23.178;2023-09-30T11:13:47;4.10;;;2.87;;
11010;SDS011;5558;42.702;23.178;2023-09-30T11:16:14;3.80;;;3.00;;
11010;SDS011;5558;42.702;23.178;2023-09-30T11:18:41;5.67;;;3.30;;
11010;SDS011;5558;42.702;23.178;2023-09-30T11:21:08;4.47;;;3.17;;
11010;SDS011;5558;42.702;23.178;2023-09-30T11:23:38;4.10;;;3.10;;
11010;SDS011;5558;42.702;23.178;2023-09-30T11:26:05;5.87;;;3.10;;
11010;SDS011;5558;42.702;23.178;2023-09-30T11:28:35;5.90;;;2.80;;
11010;SDS011;5558;42.702;23.178;2023-09-30T11:31:07;3.97;;;2.83;;
11010;SDS011;5558;42.702;23.178;2023-09-30T11:33:46;6.53;;;3.00;;
11010;SDS011;5558;42.702;23.178;2023-09-30T11:36:14;3.07;;;2.67;;
11010;SDS011;5558;42.702;23.178;2023-09-30T11:38:44;4.07;;;3.00;;
11010;SDS011;5558;42.702;23.178;2023-09-30T11:41:12;4.27;;;2.80;;
11010;SDS011;5558;42.702;23.178;2023-09-30T11:43:57;4.43;;;2.93;;
11010;SDS011;5558;42.702;23.178;2023-09-30T11:46:27;3.47;;;2.90;;
11010;SDS011;5558;42.702;23.178;2023-09-30T11:48:57;6.00;;;3.33;;
11010;SDS011;5558;42.702;23.178;2023-09-30T11:51:25;5.40;;;2.90;;
11010;SDS011;5558;42.702;23.178;2023-09-30T11:53:52;3.90;;;2.73;;
11010;SDS011;5558;42.702;23.178;2023-09-30T11:56:19;4.33;;;3.10;;
11010;SDS011;5558;42.702;23.178;2023-09-30T11:58:52;3.63;;;2.83;;
11010;SDS011;5558;42.702;23.178;2023-09-30T12:01:19;6.90;;;3.23;;
11010;SDS011;5558;42.702;23.178;2023-09-30T12:03:48;6.03;;;3.13;;
11010;SDS011;5558;42.702;23.178;2023-09-30T12:06:16;4.57;;;3.00;;
11010;SDS011;5558;42.702;23.178;2023-09-30T12:08:43;5.17;;;3.17;;
11010;SDS011;5558;42.702;23.178;2023-09-30T12:11:11;4.97;;;3.47;;
11010;SDS011;5558;42.702;23.178;2023-09-30T12:13:38;4.20;;;3.33;;
11010;SDS011;5558;42.702;23.178;2023-09-30T12:16:05;4.87;;;3.50;;
11010;SDS011;5558;42.702;23.178;2023-09-30T12:18:32;5.70;;;3.30;;
11010;SDS011;5558;42.702;23.178;2023-09-30T12:21:00;4.93;;;3.37;;
11010;SDS011;5558;42.702;23.178;2023-09-30T12:23:27;4.27;;;2.87;;
11010;SDS011;5558;42.702;23.178;2023-09-30T12:25:53;6.60;;;3.10;;
11010;SDS011;5558;42.702;23.178;2023-09-30T12:28:20;5.30;;;2.77;;
11010;SDS011;5558;42.702;23.178;2023-09-30T12:30:47;4.60;;;3.00;;
11010;SDS011;5558;42.702;23.178;2023-09-30T12:33:13;3.10;;;2.80;;
11010;SDS011;5558;42.702;23.178;2023-09-30T12:35:40;5.60;;;3.27;;
11010;SDS011;5558;42.702;23.178;2023-09-30T12:38:08;5.13;;;3.23;;
11010;SDS011;5558;42.702;23.178;2023-09-30T12:40:35;4.03;;;3.17;;
11010;SDS011;5558;42.702;23.178;2023-09-30T12:43:02;7.00;;;3.10;;
11010;SDS011;5558;42.702;23.178;2023-09-30T12:45:31;5.17;;;3.00;;
11010;SDS011;5558;42.702;23.178;2023-09-30T12:47:57;4.50;;;3.30;;
11010;SDS011;5558;42.702;23.178;2023-09-30T12:50:24;4.30;;;3.00;;
11010;SDS011;5558;42.702;23.178;2023-09-30T12:52:51;5.23;;;3.17;;
11010;SDS011;5558;42.702;23.178;2023-09-30T12:55:19;5.03;;;3.30;;
11010;SDS011;5558;42.702;23.178;2023-09-30T12:57:46;5.63;;;2.97;;
11010;SDS011;5558;42.702;23.178;2023-09-30T13:00:13;4.77;;;3.20;;
11010;SDS011;5558;42.702;23.178;2023-09-30T13:02:40;3.83;;;3.00;;
11010;SDS011;5558;42.702;23.178;2023-09-30T13:05:08;3.97;;;3.27;;
11010;SDS011;5558;42.702;23.178;2023-09-30T13:07:34;5.27;;;3.13;;
11010;SDS011;5558;42.702;23.178;2023-09-30T13:10:01;5.83;;;3.43;;
11010;SDS011;5558;42.702;23.178;2023-09-30T13:12:31;5.00;;;3.13;;
11010;SDS011;5558;42.702;23.178;2023-09-30T13:14:59;3.77;;;3.17;;
11010;SDS011;5558;42.702;23.178;2023-09-30T13:17:25;5.50;;;2.93;;
11010;SDS011;5558;42.702;23.178;2023-09-30T13:19:53;4.27;;;3.13;;
11010;SDS011;5558;42.702;23.178;2023-09-30T13:22:20;5.53;;;3.40;;
11010;SDS011;5558;42.702;23.178;2023-09-30T13:24:47;4.83;;;3.10;;
11010;SDS011;5558;42.702;23.178;2023-09-30T13:27:14;4.13;;;3.20;;
11010;SDS011;5558;42.702;23.178;2023-09-30T13:29:43;3.73;;;3.10;;
11010;SDS011;5558;42.702;23.178;2023-09-30T13:32:11;5.77;;;3.40;;
11010;SDS011;5558;42.702;23.178;2023-09-30T13:34:39;4.07;;;3.20;;
11010;SDS011;5558;42.702;23.178;2023-09-30T13:37:05;4.57;;;3.30;;
11010;SDS011;5558;42.702;23.178;2023-09-30T13:39:32;3.90;;;3.33;;
11010;SDS011;5558;42.702;23.178;2023-09-30T13:42:00;4.13;;;3.57;;
11010;SDS011;5558;42.702;23.178;2023-09-30T13:44:27;5.17;;;3.37;;
11010;SDS011;5558;42.702;23.178;2023-09-30T13:46:55;4.17;;;3.30;;
11010;SDS011;5558;42.702;23.178;2023-09-30T13:49:22;4.90;;;3.40;;
11010;SDS011;5558;42.702;23.178;2023-09-30T13:51:48;4.90;;;3.17;;
11010;SDS011;5558;42.702;23.178;2023-09-30T13:54:15;3.53;;;3.23;;
11010;SDS011;5558;42.702;23.178;2023-09-30T13:56:42;5.47;;;3.30;;
11010;SDS011;5558;42.702;23.178;2023-09-30T13:59:09;4.90;;;3.17;;
11010;SDS011;5558;42.702;23.178;2023-09-30T14:01:36;4.27;;;3.50;;
11010;SDS011;5558;42.702;23.178;2023-09-30T14:04:04;4.93;;;3.50;;
11010;SDS011;5558;42.702;23.178;2023-09-30T14:06:47;3.83;;;3.43;;
11010;SDS011;5558;42.702;23.178;2023-09-30T14:09:14;5.73;;;3.30;;
11010;SDS011;5558;42.702;23.178;2023-09-30T14:11:41;5.07;;;3.43;;
11010;SDS011;5558;42.702;23.178;2023-09-30T14:14:09;4.50;;;3.30;;
11010;SDS011;5558;42.702;23.178;2023-09-30T14:16:36;6.73;;;3.37;;
11010;SDS011;5558;42.702;23.178;2023-09-30T14:19:02;5.93;;;3.40;;
11010;SDS011;5558;42.702;23.178;2023-09-30T14:21:29;5.07;;;3.30;;
11010;SDS011;5558;42.702;23.178;2023-09-30T14:23:58;4.87;;;3.63;;
11010;SDS011;5558;42.702;23.178;2023-09-30T14:26:27;5.47;;;3.53;;
11010;SDS011;5558;42.702;23.178;2023-09-30T14:28:54;4.70;;;3.10;;
11010;SDS011;5558;42.702;23.178;2023-09-30T14:31:20;6.00;;;3.17;;
11010;SDS011;5558;42.702;23.178;2023-09-30T14:33:47;6.10;;;3.40;;
11010;SDS011;5558;42.702;23.178;2023-09-30T14:36:15;5.60;;;3.20;;
11010;SDS011;5558;42.702;23.178;2023-09-30T14:38:43;5.23;;;3.60;;
11010;SDS011;5558;42.702;23.178;2023-09-30T14:41:11;4.37;;;3.30;;
11010;SDS011;5558;42.702;23.178;2023-09-30T14:43:38;3.90;;;3.33;;
11010;SDS011;5558;42.702;23.178;2023-09-30T14:46:05;6.20;;;3.30;;
11010;SDS011;5558;42.702;23.178;2023-09-30T14:48:33;3.63;;;3.30;;
11010;SDS011;5558;42.702;23.178;2023-09-30T14:51:00;5.93;;;3.17;;
11010;SDS011;5558;42.702;23.178;2023-09-30T14:53:29;4.73;;;3.17;;
11010;SDS011;5558;42.702;23.178;2023-09-30T14:55:56;4.47;;;2.93;;
11010;SDS011;5558;42.702;23.178;2023-09-30T14:58:24;3.87;;;2.90;;
11010;SDS011;5558;42.702;23.178;2023-09-30T15:00:51;7.10;;;2.90;;